Time;durP1;ratioP1;P1;durP2;ratioP2;P2;SDS_P1;SDS_P2;PMS_P1;PMS_P2;Temp;Humidity;BMP_temperature;BMP_pressure;BME280_temperature;BME280_humidity;BME280_pressure;Samples;Min_cycle;Max_cycle;Signal;HPM_P1;HPM_P2
2024/04/02 00:02:17;;;;;;;0.77;0.50;;;;;;;;;;10300168;28;20062;-82
2024/04/02 00:07:20;;;;;;;0.65;0.50;;;;;;;;;;10314970;28;20052;-84
2024/04/02 00:12:25;;;;;;;1.50;0.60;;;;;;;;;;10329428;28;20215;-86
2024/04/02 00:17:27;;;;;;;0.77;0.70;;;;;;;;;;10311738;28;20106;-84
2024/04/02 00:22:30;;;;;;;2.22;0.50;;;;;;;;;;10324333;28;20475;-86
2024/04/02 00:27:33;;;;;;;1.00;0.63;;;;;;;;;;10313251;28;20069;-86
2024/04/02 00:32:36;;;;;;;0.77;0.47;;;;;;;;;;10314174;28;20092;-84
2024/04/02 00:37:39;;;;;;;0.38;0.38;;;;;;;;;;10334355;28;20056;-81
2024/04/02 00:42:43;;;;;;;1.08;0.50;;;;;;;;;;10293055;28;20137;-84
2024/04/02 00:47:46;;;;;;;1.27;0.50;;;;;;;;;;10310632;28;20069;-83
2024/04/02 00:52:49;;;;;;;0.40;0.40;;;;;;;;;;10330562;28;20058;-84
2024/04/02 00:57:53;;;;;;;0.45;0.45;;;;;;;;;;10310483;28;20264;-83
2024/04/02 01:02:56;;;;;;;0.40;0.30;;;;;;;;;;10294731;28;20652;-82
2024/04/02 01:07:59;;;;;;;0.98;0.32;;;;;;;;;;10312466;28;20149;-83
2024/04/02 01:13:03;;;;;;;0.73;0.35;;;;;;;;;;10308880;28;20051;-85
2024/04/02 01:18:06;;;;;;;0.52;0.30;;;;;;;;;;10289172;28;20085;-82
2024/04/02 01:23:09;;;;;;;1.73;0.45;;;;;;;;;;10312450;28;20499;-85
2024/04/02 01:28:13;;;;;;;0.50;0.30;;;;;;;;;;10328785;28;20090;-85
2024/04/02 01:33:17;;;;;;;0.20;0.20;;;;;;;;;;10307657;28;20129;-84
2024/04/02 01:38:19;;;;;;;1.17;0.40;;;;;;;;;;10322057;28;20044;-83
2024/04/02 01:43:23;;;;;;;0.88;0.40;;;;;;;;;;10303943;28;20054;-84
2024/04/02 01:48:25;;;;;;;0.22;0.22;;;;;;;;;;10322643;28;20143;-85
2024/04/02 01:53:28;;;;;;;1.08;0.40;;;;;;;;;;10303824;28;20042;-85
2024/04/02 01:58:32;;;;;;;0.57;0.30;;;;;;;;;;10323690;28;20081;-83
2024/04/02 02:03:34;;;;;;;1.08;0.32;;;;;;;;;;10300533;28;20081;-85
2024/04/02 02:08:37;;;;;;;1.88;0.40;;;;;;;;;;10322285;28;20132;-84
2024/04/02 02:13:41;;;;;;;0.82;0.40;;;;;;;;;;10312984;28;20142;-83
2024/04/02 02:18:43;;;;;;;0.65;0.35;;;;;;;;;;10271605;28;20508;-84
2024/04/02 02:23:46;;;;;;;0.90;0.40;;;;;;;;;;10313680;28;20057;-83
2024/04/02 02:28:50;;;;;;;1.65;0.40;;;;;;;;;;10308632;28;20046;-82
2024/04/02 02:33:53;;;;;;;1.08;0.55;;;;;;;;;;10303465;28;20145;-84
2024/04/02 02:38:55;;;;;;;2.15;0.38;;;;;;;;;;10303089;28;20142;-82
2024/04/02 02:44:00;;;;;;;1.63;0.68;;;;;;;;;;10286477;28;20046;-82
2024/04/02 02:49:03;;;;;;;1.42;0.60;;;;;;;;;;10301591;28;20570;-82
2024/04/02 02:54:06;;;;;;;1.70;0.75;;;;;;;;;;10303802;28;20133;-88
2024/04/02 02:59:10;;;;;;;0.40;0.40;;;;;;;;;;10310410;28;20061;-85
2024/04/02 03:04:12;;;;;;;1.73;0.63;;;;;;;;;;10311912;28;20543;-86
2024/04/02 03:09:15;;;;;;;1.35;0.43;;;;;;;;;;10315652;28;20519;-85
2024/04/02 03:14:19;;;;;;;1.27;0.50;;;;;;;;;;10313707;28;20443;-85
2024/04/02 03:19:25;;;;;;;0.40;0.40;;;;;;;;;;10304888;28;20406;-86
2024/04/02 03:24:28;;;;;;;;;;;;;;;;;;10296569;28;20105;-86
2024/04/02 03:29:32;;;;;;;1.75;0.60;;;;;;;;;;10306438;28;21875;-87
2024/04/02 03:34:34;;;;;;;0.30;0.30;;;;;;;;;;10324053;28;20050;-86
2024/04/02 03:39:37;;;;;;;0.98;0.40;;;;;;;;;;10305479;28;20061;-85
2024/04/02 03:44:40;;;;;;;0.80;0.40;;;;;;;;;;10302952;28;20460;-84
2024/04/02 03:49:46;;;;;;;0.65;0.30;;;;;;;;;;10314339;28;20141;-87
2024/04/02 03:54:49;;;;;;;1.40;0.50;;;;;;;;;;10317660;28;20073;-84
2024/04/02 03:59:53;;;;;;;0.63;0.40;;;;;;;;;;10331943;28;20062;-85
2024/04/02 04:04:55;;;;;;;0.40;0.40;;;;;;;;;;10324459;28;20902;-84
2024/04/02 04:09:58;;;;;;;0.82;0.40;;;;;;;;;;10319934;28;20042;-84
2024/04/02 04:15:02;;;;;;;0.30;0.25;;;;;;;;;;10315285;28;20673;-83
2024/04/02 04:20:05;;;;;;;0.90;0.47;;;;;;;;;;10309763;28;20393;-83
2024/04/02 04:25:08;;;;;;;0.63;0.40;;;;;;;;;;10295702;28;20094;-83
2024/04/02 04:30:12;;;;;;;1.10;0.40;;;;;;;;;;10293990;28;20580;-81
2024/04/02 04:35:15;;;;;;;0.52;0.30;;;;;;;;;;10299740;28;20104;-81
2024/04/02 04:40:17;;;;;;;0.70;0.35;;;;;;;;;;10298155;28;20038;-81
2024/04/02 04:45:21;;;;;;;0.57;0.38;;;;;;;;;;10311151;28;20046;-83
2024/04/02 04:50:24;;;;;;;0.80;0.35;;;;;;;;;;10325092;28;20058;-81
2024/04/02 04:55:26;;;;;;;0.52;0.30;;;;;;;;;;10291592;28;20145;-81
2024/04/02 05:00:30;;;;;;;0.57;0.47;;;;;;;;;;10306390;28;20093;-82
2024/04/02 05:05:33;;;;;;;1.00;0.30;;;;;;;;;;10324140;28;20047;-82
2024/04/02 05:10:35;;;;;;;4.70;0.45;;;;;;;;;;10301902;28;20054;-83
2024/04/02 05:15:39;;;;;;;0.70;0.68;;;;;;;;;;10307798;28;20070;-81
2024/04/02 05:26:13;;;;;;;1.55;0.85;;;;;;;;;;10326093;28;20060;-74
2024/04/02 05:31:22;;;;;;;2.25;0.60;;;;;;;;;;10309041;28;20150;-74
2024/04/02 05:36:25;;;;;;;1.30;0.52;;;;;;;;;;10320578;28;20046;-74
2024/04/02 05:41:29;;;;;;;1.25;0.45;;;;;;;;;;10320483;28;20093;-74
2024/04/02 05:46:33;;;;;;;1.25;0.50;;;;;;;;;;10308882;28;20042;-74
2024/04/02 05:51:36;;;;;;;1.83;0.60;;;;;;;;;;10318096;28;21348;-74
2024/04/02 05:56:41;;;;;;;1.00;0.52;;;;;;;;;;10302220;28;20050;-74
2024/04/02 06:01:48;;;;;;;0.60;0.50;;;;;;;;;;10315121;28;20038;-74
2024/04/02 06:06:51;;;;;;;0.95;0.50;;;;;;;;;;10314966;28;20054;-74
2024/04/02 06:11:55;;;;;;;1.50;0.40;;;;;;;;;;10315456;28;20039;-74
2024/04/02 06:17:08;;;;;;;0.70;0.40;;;;;;;;;;10316732;28;20049;-74
2024/04/02 06:22:13;;;;;;;0.77;0.52;;;;;;;;;;10291758;28;20066;-74
2024/04/02 06:27:15;;;;;;;3.42;1.20;;;;;;;;;;10309703;28;20046;-74
2024/04/02 06:32:22;;;;;;;1.35;0.65;;;;;;;;;;10320393;28;20091;-74
2024/04/02 06:37:25;;;;;;;1.38;0.57;;;;;;;;;;10317350;28;20334;-74
2024/04/02 06:42:32;;;;;;;2.67;0.75;;;;;;;;;;10306063;28;20046;-74
2024/04/02 06:47:36;;;;;;;2.70;0.88;;;;;;;;;;10289321;28;20061;-74
2024/04/02 06:52:40;;;;;;;2.45;1.17;;;;;;;;;;10305939;28;20087;-74
2024/04/02 06:57:45;;;;;;;5.35;1.20;;;;;;;;;;10321056;28;20058;-74
2024/04/02 07:02:53;;;;;;;3.97;1.35;;;;;;;;;;10298779;28;20134;-74
2024/04/02 07:07:55;;;;;;;7.88;1.25;;;;;;;;;;10290282;28;20551;-74
2024/04/02 07:12:58;;;;;;;4.47;1.65;;;;;;;;;;10314421;28;20109;-74
2024/04/02 07:18:02;;;;;;;2.85;1.20;;;;;;;;;;10309732;28;20148;-74
2024/04/02 07:23:05;;;;;;;7.32;1.90;;;;;;;;;;10306024;28;20034;-74
2024/04/02 07:28:08;;;;;;;7.93;2.08;;;;;;;;;;10306705;28;20050;-74
2024/04/02 07:33:11;;;;;;;8.25;2.10;;;;;;;;;;10313407;28;20070;-74
2024/04/02 07:38:15;;;;;;;5.35;1.52;;;;;;;;;;10311529;28;20050;-74
2024/04/02 07:43:18;;;;;;;8.43;1.83;;;;;;;;;;10314727;28;20050;-74
2024/04/02 07:48:22;;;;;;;8.00;1.90;;;;;;;;;;10309653;28;20560;-74
2024/04/02 07:53:28;;;;;;;9.70;2.13;;;;;;;;;;10286039;28;20041;-74
2024/04/02 07:58:31;;;;;;;9.55;2.15;;;;;;;;;;10311482;28;20077;-74
2024/04/02 08:03:35;;;;;;;8.43;1.98;;;;;;;;;;10308914;28;20133;-74
2024/04/02 08:08:37;;;;;;;6.10;1.70;;;;;;;;;;10309309;28;20082;-74
2024/04/02 08:13:40;;;;;;;13.20;1.98;;;;;;;;;;10316204;28;20544;-74
2024/04/02 08:18:43;;;;;;;4.68;1.80;;;;;;;;;;10313175;28;20055;-74
2024/04/02 08:23:46;;;;;;;8.63;1.90;;;;;;;;;;10306458;28;20082;-74
2024/04/02 08:28:48;;;;;;;6.93;1.88;;;;;;;;;;10315532;28;20092;-74
2024/04/02 08:33:52;;;;;;;8.10;1.73;;;;;;;;;;10319035;28;20618;-74
2024/04/02 08:38:55;;;;;;;4.53;1.55;;;;;;;;;;10312077;28;20065;-74
2024/04/02 08:43:59;;;;;;;5.15;1.88;;;;;;;;;;10314290;28;20145;-74
2024/04/02 08:49:04;;;;;;;4.60;1.50;;;;;;;;;;10311414;28;20572;-74
2024/04/02 08:54:06;;;;;;;2.72;1.10;;;;;;;;;;10304140;28;20043;-74
2024/04/02 08:59:10;;;;;;;3.63;1.40;;;;;;;;;;10321287;28;20576;-74
2024/04/02 09:04:18;;;;;;;4.30;1.20;;;;;;;;;;10296076;28;20046;-74
2024/04/02 09:09:21;;;;;;;4.25;1.40;;;;;;;;;;10315049;28;20112;-74
2024/04/02 09:14:23;;;;;;;6.93;1.73;;;;;;;;;;10314822;28;20089;-74
2024/04/02 09:19:28;;;;;;;6.13;1.55;;;;;;;;;;10312442;28;20050;-74
2024/04/02 09:24:30;;;;;;;2.47;0.98;;;;;;;;;;10311986;28;20085;-74
2024/04/02 09:29:33;;;;;;;3.03;1.10;;;;;;;;;;10304483;28;20042;-74
2024/04/02 09:34:39;;;;;;;2.95;1.10;;;;;;;;;;10307974;28;20102;-74
2024/04/02 09:39:43;;;;;;;4.60;1.35;;;;;;;;;;10315787;28;20053;-74
2024/04/02 09:44:46;;;;;;;2.28;1.00;;;;;;;;;;10307230;28;20050;-74
2024/04/02 09:49:52;;;;;;;3.33;0.70;;;;;;;;;;10310004;28;20061;-74
2024/04/02 09:54:55;;;;;;;3.97;1.23;;;;;;;;;;10308895;28;20058;-74
2024/04/02 09:59:58;;;;;;;4.30;1.40;;;;;;;;;;10319196;28;20532;-74
2024/04/02 10:05:01;;;;;;;3.75;1.27;;;;;;;;;;10319414;28;20202;-74
2024/04/02 10:10:07;;;;;;;4.72;1.10;;;;;;;;;;10312587;28;20043;-74
2024/04/02 10:15:11;;;;;;;4.80;1.03;;;;;;;;;;10301411;28;20069;-74
2024/04/02 10:20:25;;;;;;;3.78;0.85;;;;;;;;;;10305859;28;20042;-73
2024/04/02 10:25:31;;;;;;;3.55;0.90;;;;;;;;;;10279605;28;20154;-74
2024/04/02 10:30:34;;;;;;;2.80;0.95;;;;;;;;;;10312059;28;20046;-74
2024/04/02 10:35:37;;;;;;;2.80;0.55;;;;;;;;;;10305284;28;20425;-74
2024/04/02 10:40:40;;;;;;;1.95;0.60;;;;;;;;;;10318216;28;20427;-74
2024/04/02 10:45:42;;;;;;;2.90;0.88;;;;;;;;;;10321647;28;20053;-74
2024/04/02 10:50:46;;;;;;;2.75;0.60;;;;;;;;;;10319557;28;20638;-74
2024/04/02 10:55:49;;;;;;;3.00;0.63;;;;;;;;;;10322186;28;20440;-74
2024/04/02 11:00:51;;;;;;;3.80;0.90;;;;;;;;;;10323069;28;20442;-74
2024/04/02 11:05:55;;;;;;;1.42;0.73;;;;;;;;;;10323169;28;20054;-74
2024/04/02 11:10:58;;;;;;;4.55;0.98;;;;;;;;;;10328279;28;20046;-74
2024/04/02 11:16:00;;;;;;;2.25;0.68;;;;;;;;;;10331124;28;20054;-74
2024/04/02 11:21:05;;;;;;;2.42;0.50;;;;;;;;;;10359732;22;20064;-74
2024/04/02 11:26:12;;;;;;;1.98;0.65;;;;;;;;;;10330333;28;20046;-74
2024/04/02 11:31:30;;;;;;;1.65;0.50;;;;;;;;;;10337355;28;20112;-74
2024/04/02 11:36:34;;;;;;;2.35;0.63;;;;;;;;;;10333305;28;20066;-74
2024/04/02 11:41:47;;;;;;;4.03;1.17;;;;;;;;;;10331850;28;20038;-74
2024/04/02 11:46:52;;;;;;;2.57;0.93;;;;;;;;;;10314533;28;20081;-74
2024/04/02 11:51:59;;;;;;;3.38;0.80;;;;;;;;;;10330483;28;20140;-74
2024/04/02 12:02:35;;;;;;;2.13;0.98;;;;;;;;;;10289913;28;20041;-74
2024/04/02 12:07:40;;;;;;;2.35;0.93;;;;;;;;;;10324161;28;20055;-74
2024/04/02 12:12:43;;;;;;;3.92;1.10;;;;;;;;;;10343173;28;20130;-74
2024/04/02 12:17:46;;;;;;;6.05;0.85;;;;;;;;;;10334467;28;20046;-74
2024/04/02 12:22:52;;;;;;;5.30;0.80;;;;;;;;;;10328892;28;20043;-74
2024/04/02 12:27:59;;;;;;;2.53;1.25;;;;;;;;;;10333059;28;20054;-73
2024/04/02 12:33:08;;;;;;;3.10;1.15;;;;;;;;;;10328895;28;20077;-73
2024/04/02 12:38:17;;;;;;;3.95;1.15;;;;;;;;;;10319822;28;20215;-73
2024/04/02 12:43:19;;;;;;;6.72;1.17;;;;;;;;;;10326542;28;20625;-74
2024/04/02 12:48:31;;;;;;;5.63;1.20;;;;;;;;;;10325204;28;20051;-74
2024/04/02 12:53:42;;;;;;;4.78;1.30;;;;;;;;;;10327478;28;20042;-73
2024/04/02 12:58:45;;;;;;;5.68;1.40;;;;;;;;;;10318771;28;20058;-74
2024/04/02 13:03:50;;;;;;;7.68;1.73;;;;;;;;;;10328414;28;20050;-74
2024/04/02 13:08:57;;;;;;;6.67;1.50;;;;;;;;;;10330041;28;20500;-74
2024/04/02 13:14:00;;;;;;;3.20;1.20;;;;;;;;;;10329799;28;20348;-74
2024/04/02 13:19:04;;;;;;;4.30;1.42;;;;;;;;;;10324520;28;20381;-74
2024/04/02 13:24:09;;;;;;;7.15;2.00;;;;;;;;;;10319616;28;20624;-74
2024/04/02 13:29:13;;;;;;;4.88;1.42;;;;;;;;;;10320883;28;20058;-74
2024/04/02 13:34:16;;;;;;;6.28;1.50;;;;;;;;;;10320862;28;20042;-74
2024/04/02 13:39:19;;;;;;;6.68;1.50;;;;;;;;;;10320086;28;20054;-74
2024/04/02 13:44:22;;;;;;;4.68;1.38;;;;;;;;;;10318521;28;20340;-74
2024/04/02 13:49:24;;;;;;;5.25;1.60;;;;;;;;;;10326559;28;20042;-74
2024/04/02 13:54:28;;;;;;;3.03;1.27;;;;;;;;;;10319089;28;20046;-73
2024/04/02 13:59:30;;;;;;;5.40;1.42;;;;;;;;;;10344524;28;20046;-74
2024/04/02 14:04:32;;;;;;;5.15;1.40;;;;;;;;;;10321545;28;20038;-74
2024/04/02 14:09:36;;;;;;;5.00;1.35;;;;;;;;;;10324117;28;20545;-74
2024/04/02 14:14:38;;;;;;;2.53;1.00;;;;;;;;;;10320634;28;20503;-74
2024/04/02 14:19:42;;;;;;;3.70;1.23;;;;;;;;;;10323249;28;20428;-74
2024/04/02 14:24:46;;;;;;;7.22;1.45;;;;;;;;;;10324298;28;20057;-74
2024/04/02 14:36:20;;;;;;;2.67;0.82;;;;;;;;;;10359665;28;20072;-73
2024/04/02 14:41:57;;;;;;;5.25;1.33;;;;;;;;;;10338013;28;20068;-74
2024/04/02 14:47:40;;;;;;;5.10;1.17;;;;;;;;;;10326066;28;20594;-74
2024/04/02 14:52:42;;;;;;;2.33;0.90;;;;;;;;;;10326773;28;20046;-74
2024/04/02 14:57:47;;;;;;;5.18;1.45;;;;;;;;;;10352123;28;20058;-74
2024/04/02 15:02:50;;;;;;;5.43;1.30;;;;;;;;;;10323066;28;20092;-74
2024/04/02 15:07:53;;;;;;;5.45;1.52;;;;;;;;;;10338623;28;20570;-74
2024/04/02 15:12:56;;;;;;;3.55;1.02;;;;;;;;;;10348174;28;20046;-74
2024/04/02 15:17:59;;;;;;;4.40;1.27;;;;;;;;;;10338275;28;20060;-74
2024/04/02 15:23:02;;;;;;;5.63;1.23;;;;;;;;;;10355595;28;20053;-74
2024/04/02 15:28:06;;;;;;;2.72;1.08;;;;;;;;;;10354405;28;20062;-74
2024/04/02 15:33:08;;;;;;;3.92;1.10;;;;;;;;;;10347444;28;20065;-74
2024/04/02 15:38:11;;;;;;;4.63;1.23;;;;;;;;;;10354795;28;20034;-74
2024/04/02 15:43:14;;;;;;;4.55;1.02;;;;;;;;;;10361407;28;20049;-74
2024/04/02 15:48:17;;;;;;;5.40;1.20;;;;;;;;;;10492165;22;20358;-84
2024/04/02 15:53:19;;;;;;;4.80;1.20;;;;;;;;;;10325635;28;20130;-84
2024/04/02 15:58:24;;;;;;;4.68;1.23;;;;;;;;;;10311895;28;20076;-84
2024/04/02 16:03:27;;;;;;;5.22;1.40;;;;;;;;;;10305248;28;20068;-85
2024/04/02 16:08:29;;;;;;;3.42;1.25;;;;;;;;;;10310517;28;20088;-83
2024/04/02 16:13:33;;;;;;;2.50;0.70;;;;;;;;;;10315605;28;20137;-82
2024/04/02 16:18:36;;;;;;;5.43;1.35;;;;;;;;;;10299627;28;20895;-83
2024/04/02 16:23:39;;;;;;;5.38;1.17;;;;;;;;;;10320555;28;20566;-83
2024/04/02 16:28:43;;;;;;;7.60;1.98;;;;;;;;;;10300122;28;20080;-82
2024/04/02 16:33:45;;;;;;;6.13;1.52;;;;;;;;;;10308506;28;20046;-82
2024/04/02 16:38:48;;;;;;;2.88;1.10;;;;;;;;;;10300456;28;20058;-83
2024/04/02 16:43:54;;;;;;;4.60;1.52;;;;;;;;;;10301601;28;20056;-82
2024/04/02 16:48:57;;;;;;;6.97;1.40;;;;;;;;;;10300073;28;20043;-83
2024/04/02 16:53:59;;;;;;;4.00;1.48;;;;;;;;;;10304551;28;20046;-83
2024/04/02 16:59:03;;;;;;;5.28;1.10;;;;;;;;;;10316154;28;20046;-82
2024/04/02 17:04:06;;;;;;;4.25;1.40;;;;;;;;;;10302295;28;20393;-83
2024/04/02 17:09:08;;;;;;;7.55;1.33;;;;;;;;;;10284484;28;20050;-83
2024/04/02 17:14:12;;;;;;;4.47;1.25;;;;;;;;;;10303018;28;20133;-82
2024/04/02 17:19:14;;;;;;;4.90;1.58;;;;;;;;;;10352135;22;20634;-73
2024/04/02 17:24:17;;;;;;;3.95;1.20;;;;;;;;;;10376227;28;20045;-73
2024/04/02 17:29:20;;;;;;;3.03;1.20;;;;;;;;;;10362993;28;20524;-73
2024/04/02 17:34:23;;;;;;;5.13;1.67;;;;;;;;;;10329153;28;20038;-73
2024/04/02 17:39:25;;;;;;;3.08;0.77;;;;;;;;;;10329321;28;20512;-72
2024/04/02 17:44:30;;;;;;;3.72;1.25;;;;;;;;;;10338485;28;20463;-72
2024/04/02 17:49:34;;;;;;;1.88;0.93;;;;;;;;;;10322095;28;20052;-72
2024/04/02 17:54:37;;;;;;;3.28;0.85;;;;;;;;;;10339478;28;20061;-72
2024/04/02 17:59:41;;;;;;;4.40;0.93;;;;;;;;;;10347737;28;20052;-72
2024/04/02 18:04:43;;;;;;;4.22;1.13;;;;;;;;;;10342172;28;20042;-73
2024/04/02 18:09:45;;;;;;;4.22;1.00;;;;;;;;;;10321433;28;20057;-73
2024/04/02 18:14:49;;;;;;;1.45;0.50;;;;;;;;;;10318276;28;20047;-73
2024/04/02 18:19:51;;;;;;;1.33;0.57;;;;;;;;;;10348273;28;20053;-72
2024/04/02 18:24:54;;;;;;;2.88;0.98;;;;;;;;;;10325828;28;20061;-72
2024/04/02 18:35:32;;;;;;;2.50;1.05;;;;;;;;;;10686214;22;20038;-88
2024/04/02 18:40:35;;;;;;;3.20;1.05;;;;;;;;;;10314768;28;20110;-85
2024/04/02 18:45:37;;;;;;;5.90;1.88;;;;;;;;;;10307510;28;20134;-85
2024/04/02 18:50:49;;;;;;;4.10;1.10;;;;;;;;;;10307310;28;20224;-85
2024/04/02 18:55:58;;;;;;;2.97;1.40;;;;;;;;;;10330184;28;20137;-86
2024/04/02 19:01:05;;;;;;;3.35;1.02;;;;;;;;;;10338533;28;20129;-84
2024/04/02 19:06:10;;;;;;;4.15;1.05;;;;;;;;;;10342921;28;20125;-86
2024/04/02 19:11:12;;;;;;;4.15;1.15;;;;;;;;;;10330058;28;20045;-87
2024/04/02 19:16:15;;;;;;;5.22;1.15;;;;;;;;;;10331853;28;20096;-86
2024/04/02 19:21:22;;;;;;;2.95;1.25;;;;;;;;;;10330977;28;20124;-86
2024/04/02 19:26:25;;;;;;;5.38;1.38;;;;;;;;;;10333386;28;20073;-86
2024/04/02 19:31:28;;;;;;;3.10;0.80;;;;;;;;;;10337534;28;20065;-85
2024/04/02 19:36:32;;;;;;;1.30;0.70;;;;;;;;;;10322908;28;20050;-84
2024/04/02 19:41:35;;;;;;;2.83;1.20;;;;;;;;;;10325956;28;20765;-84
2024/04/02 19:46:39;;;;;;;4.28;1.10;;;;;;;;;;10313465;28;20554;-86
2024/04/02 19:51:43;;;;;;;1.85;0.98;;;;;;;;;;10297488;28;20074;-84
2024/04/02 19:56:45;;;;;;;2.80;1.08;;;;;;;;;;10294439;28;20141;-84
2024/04/02 20:01:48;;;;;;;2.38;1.00;;;;;;;;;;10291312;28;20053;-85
2024/04/02 20:06:54;;;;;;;1.30;0.70;;;;;;;;;;10294744;28;20081;-85
2024/04/02 20:11:57;;;;;;;0.68;0.50;;;;;;;;;;10288462;28;20057;-87
2024/04/02 20:16:59;;;;;;;2.83;0.93;;;;;;;;;;10268765;28;20101;-86
2024/04/02 20:22:03;;;;;;;3.65;1.20;;;;;;;;;;10272473;28;20092;-84
2024/04/02 20:27:06;;;;;;;2.38;1.17;;;;;;;;;;10294696;28;20134;-86
2024/04/02 20:32:08;;;;;;;1.73;0.88;;;;;;;;;;10291373;28;20070;-86
2024/04/02 20:37:12;;;;;;;1.02;0.55;;;;;;;;;;10277327;28;20134;-86
2024/04/02 20:42:14;;;;;;;1.50;0.57;;;;;;;;;;10280252;28;20514;-85
2024/04/02 20:47:18;;;;;;;1.13;0.57;;;;;;;;;;10278745;28;20101;-85
2024/04/02 20:52:25;;;;;;;1.20;0.60;;;;;;;;;;10288684;28;20056;-86
2024/04/02 20:57:30;;;;;;;0.90;0.45;;;;;;;;;;10271048;28;20042;-83
2024/04/02 21:02:32;;;;;;;1.60;0.85;;;;;;;;;;10282969;28;20046;-83
2024/04/02 21:07:36;;;;;;;2.08;0.85;;;;;;;;;;10269154;28;20069;-83
2024/04/02 21:12:39;;;;;;;1.35;0.60;;;;;;;;;;10256572;28;20108;-84
2024/04/02 21:17:41;;;;;;;1.88;0.75;;;;;;;;;;10257690;28;20051;-83
2024/04/02 21:22:46;;;;;;;1.55;0.63;;;;;;;;;;10263981;28;20074;-83
2024/04/02 21:27:49;;;;;;;1.77;0.40;;;;;;;;;;10283095;28;20051;-83
2024/04/02 21:32:51;;;;;;;1.45;0.45;;;;;;;;;;10270111;28;20145;-82
2024/04/02 21:37:56;;;;;;;0.70;0.32;;;;;;;;;;10264207;28;20145;-82
2024/04/02 21:42:58;;;;;;;0.63;0.40;;;;;;;;;;10276281;28;20403;-83
2024/04/02 21:48:02;;;;;;;2.55;0.75;;;;;;;;;;10263244;28;20691;-82
2024/04/02 21:53:07;;;;;;;2.13;0.80;;;;;;;;;;10275829;28;20062;-83
2024/04/02 21:58:09;;;;;;;2.83;0.40;;;;;;;;;;10265668;28;20054;-83
2024/04/02 22:03:15;;;;;;;0.73;0.20;;;;;;;;;;10264512;28;20058;-83
2024/04/02 22:08:18;;;;;;;1.17;0.57;;;;;;;;;;10260343;28;20068;-83
2024/04/02 22:13:21;;;;;;;0.63;0.32;;;;;;;;;;10278376;28;20770;-83
2024/04/02 22:18:24;;;;;;;1.48;0.50;;;;;;;;;;10262623;28;20729;-83
2024/04/02 22:23:28;;;;;;;2.67;0.50;;;;;;;;;;10272801;28;20054;-83
2024/04/02 22:28:30;;;;;;;1.30;0.40;;;;;;;;;;10277093;28;20038;-83
2024/04/02 22:33:32;;;;;;;1.38;0.45;;;;;;;;;;10274519;28;20049;-83
2024/04/02 22:38:38;;;;;;;0.43;0.20;;;;;;;;;;10258583;28;20046;-83
2024/04/02 22:43:41;;;;;;;1.13;0.40;;;;;;;;;;10267613;28;20058;-83
2024/04/02 22:48:46;;;;;;;0.40;0.20;;;;;;;;;;10260651;28;20411;-83
2024/04/02 22:53:50;;;;;;;0.80;0.57;;;;;;;;;;10269456;28;20058;-82
2024/04/02 22:58:52;;;;;;;0.95;0.47;;;;;;;;;;10277529;28;20840;-83
2024/04/02 23:03:54;;;;;;;0.90;0.38;;;;;;;;;;10271423;28;20565;-83
2024/04/02 23:08:58;;;;;;;1.90;0.60;;;;;;;;;;10277074;28;20727;-83
2024/04/02 23:14:01;;;;;;;0.47;0.47;;;;;;;;;;10301924;28;20753;-83
2024/04/02 23:19:03;;;;;;;1.10;0.43;;;;;;;;;;10284619;23;20050;-75
2024/04/02 23:24:07;;;;;;;0.80;0.57;;;;;;;;;;10284966;28;20477;-75
2024/04/02 23:29:10;;;;;;;1.92;0.40;;;;;;;;;;10314715;28;20430;-74
2024/04/02 23:34:12;;;;;;;0.82;0.50;;;;;;;;;;10297839;28;20130;-74
2024/04/02 23:39:16;;;;;;;1.25;0.45;;;;;;;;;;10306857;28;20791;-74
2024/04/02 23:44:18;;;;;;;0.55;0.32;;;;;;;;;;10312805;28;20609;-74
2024/04/02 23:49:21;;;;;;;0.47;0.30;;;;;;;;;;10298064;28;20142;-74
2024/04/02 23:54:25;;;;;;;0.75;0.45;;;;;;;;;;10316878;28;20218;-74
2024/04/02 23:59:27;;;;;;;0.90;0.45;;;;;;;;;;10322382;28;20061;-74
